sensor_id;sensor_type;location;lat;lon;timestamp;P1;durP1;ratioP1;P2;durP2;ratioP2
70205;SDS011;57593;55.896;37.396;2022-07-25T00:00:00;10.15;;;8.25;;
70205;SDS011;57593;55.896;37.396;2022-07-25T00:02:26;9.82;;;8.20;;
70205;SDS011;57593;55.896;37.396;2022-07-25T00:04:51;12.90;;;8.85;;
70205;SDS011;57593;55.896;37.396;2022-07-25T00:07:17;9.98;;;8.60;;
70205;SDS011;57593;55.896;37.396;2022-07-25T00:09:43;9.27;;;7.90;;
70205;SDS011;57593;55.896;37.396;2022-07-25T00:12:09;13.85;;;8.30;;
70205;SDS011;57593;55.896;37.396;2022-07-25T00:14:34;11.32;;;7.55;;
70205;SDS011;57593;55.896;37.396;2022-07-25T00:17:00;9.95;;;7.93;;
70205;SDS011;57593;55.896;37.396;2022-07-25T00:19:26;9.75;;;8.00;;
70205;SDS011;57593;55.896;37.396;2022-07-25T00:21:52;11.25;;;8.00;;
70205;SDS011;57593;55.896;37.396;2022-07-25T00:24:18;10.23;;;7.45;;
70205;SDS011;57593;55.896;37.396;2022-07-25T00:26:43;9.05;;;7.22;;
70205;SDS011;57593;55.896;37.396;2022-07-25T00:29:09;7.55;;;6.80;;
70205;SDS011;57593;55.896;37.396;2022-07-25T00:31:35;9.45;;;7.75;;
70205;SDS011;57593;55.896;37.396;2022-07-25T00:34:01;10.05;;;7.93;;
70205;SDS011;57593;55.896;37.396;2022-07-25T00:36:27;9.23;;;7.43;;
70205;SDS011;57593;55.896;37.396;2022-07-25T00:38:53;11.98;;;7.28;;
70205;SDS011;57593;55.896;37.396;2022-07-25T00:41:18;8.02;;;7.07;;
70205;SDS011;57593;55.896;37.396;2022-07-25T00:43:44;13.35;;;9.05;;
70205;SDS011;57593;55.896;37.396;2022-07-25T00:46:11;8.13;;;7.32;;
70205;SDS011;57593;55.896;37.396;2022-07-25T00:48:40;9.48;;;6.88;;
70205;SDS011;57593;55.896;37.396;2022-07-25T00:51:06;7.15;;;5.90;;
70205;SDS011;57593;55.896;37.396;2022-07-25T00:53:33;9.05;;;6.80;;
70205;SDS011;57593;55.896;37.396;2022-07-25T00:56:00;8.25;;;7.43;;
70205;SDS011;57593;55.896;37.396;2022-07-25T00:58:26;10.80;;;7.10;;
70205;SDS011;57593;55.896;37.396;2022-07-25T01:00:51;7.50;;;6.60;;
70205;SDS011;57593;55.896;37.396;2022-07-25T01:03:17;10.15;;;7.20;;
70205;SDS011;57593;55.896;37.396;2022-07-25T01:05:43;9.02;;;7.15;;
70205;SDS011;57593;55.896;37.396;2022-07-25T01:08:09;9.23;;;7.32;;
70205;SDS011;57593;55.896;37.396;2022-07-25T01:10:35;7.82;;;6.63;;
70205;SDS011;57593;55.896;37.396;2022-07-25T01:13:02;8.13;;;7.22;;
70205;SDS011;57593;55.896;37.396;2022-07-25T01:15:28;9.63;;;6.97;;
70205;SDS011;57593;55.896;37.396;2022-07-25T01:17:54;9.00;;;6.75;;
70205;SDS011;57593;55.896;37.396;2022-07-25T01:20:24;8.70;;;7.10;;
70205;SDS011;57593;55.896;37.396;2022-07-25T01:22:52;7.32;;;6.53;;
70205;SDS011;57593;55.896;37.396;2022-07-25T01:25:18;11.93;;;7.00;;
70205;SDS011;57593;55.896;37.396;2022-07-25T01:27:44;9.52;;;7.13;;
70205;SDS011;57593;55.896;37.396;2022-07-25T01:30:12;8.70;;;7.45;;
70205;SDS011;57593;55.896;37.396;2022-07-25T01:32:39;9.20;;;6.93;;
70205;SDS011;57593;55.896;37.396;2022-07-25T01:35:06;8.32;;;7.53;;
70205;SDS011;57593;55.896;37.396;2022-07-25T01:37:33;11.77;;;7.53;;
70205;SDS011;57593;55.896;37.396;2022-07-25T01:39:59;9.40;;;8.23;;
70205;SDS011;57593;55.896;37.396;2022-07-25T01:42:25;16.65;;;9.27;;
70205;SDS011;57593;55.896;37.396;2022-07-25T01:44:52;16.77;;;10.43;;
70205;SDS011;57593;55.896;37.396;2022-07-25T01:47:18;12.43;;;9.23;;
70205;SDS011;57593;55.896;37.396;2022-07-25T01:49:44;13.98;;;9.45;;
70205;SDS011;57593;55.896;37.396;2022-07-25T01:52:10;14.13;;;9.65;;
70205;SDS011;57593;55.896;37.396;2022-07-25T01:54:37;13.75;;;9.73;;
70205;SDS011;57593;55.896;37.396;2022-07-25T01:57:04;13.38;;;10.02;;
70205;SDS011;57593;55.896;37.396;2022-07-25T01:59:30;15.07;;;10.48;;
70205;SDS011;57593;55.896;37.396;2022-07-25T02:01:56;19.60;;;10.70;;
70205;SDS011;57593;55.896;37.396;2022-07-25T02:04:22;11.55;;;9.52;;
70205;SDS011;57593;55.896;37.396;2022-07-25T02:06:48;14.25;;;9.60;;
70205;SDS011;57593;55.896;37.396;2022-07-25T02:09:14;14.27;;;10.05;;
70205;SDS011;57593;55.896;37.396;2022-07-25T02:11:40;15.80;;;10.43;;
70205;SDS011;57593;55.896;37.396;2022-07-25T02:14:06;11.30;;;8.82;;
70205;SDS011;57593;55.896;37.396;2022-07-25T02:16:32;13.35;;;10.23;;
70205;SDS011;57593;55.896;37.396;2022-07-25T02:18:57;15.25;;;8.70;;
70205;SDS011;57593;55.896;37.396;2022-07-25T02:21:23;11.18;;;9.18;;
70205;SDS011;57593;55.896;37.396;2022-07-25T02:23:50;12.52;;;8.93;;
70205;SDS011;57593;55.896;37.396;2022-07-25T02:26:16;13.43;;;8.80;;
70205;SDS011;57593;55.896;37.396;2022-07-25T02:28:42;13.30;;;9.23;;
70205;SDS011;57593;55.896;37.396;2022-07-25T02:31:08;13.68;;;9.82;;
70205;SDS011;57593;55.896;37.396;2022-07-25T02:33:34;12.82;;;9.70;;
70205;SDS011;57593;55.896;37.396;2022-07-25T02:36:00;11.32;;;9.20;;
70205;SDS011;57593;55.896;37.396;2022-07-25T02:38:26;11.02;;;9.38;;
70205;SDS011;57593;55.896;37.396;2022-07-25T02:40:52;11.73;;;9.25;;
70205;SDS011;57593;55.896;37.396;2022-07-25T02:43:18;15.13;;;9.70;;
70205;SDS011;57593;55.896;37.396;2022-07-25T02:45:44;12.45;;;8.40;;
70205;SDS011;57593;55.896;37.396;2022-07-25T02:48:10;14.40;;;9.43;;
70205;SDS011;57593;55.896;37.396;2022-07-25T02:50:36;11.65;;;8.93;;
70205;SDS011;57593;55.896;37.396;2022-07-25T02:53:02;14.18;;;9.30;;
70205;SDS011;57593;55.896;37.396;2022-07-25T02:55:29;12.07;;;8.50;;
70205;SDS011;57593;55.896;37.396;2022-07-25T02:57:55;10.82;;;8.05;;
70205;SDS011;57593;55.896;37.396;2022-07-25T03:00:21;13.07;;;8.48;;
70205;SDS011;57593;55.896;37.396;2022-07-25T03:02:47;9.70;;;7.88;;
70205;SDS011;57593;55.896;37.396;2022-07-25T03:05:14;9.60;;;8.15;;
70205;SDS011;57593;55.896;37.396;2022-07-25T03:07:40;8.90;;;7.35;;
70205;SDS011;57593;55.896;37.396;2022-07-25T03:10:08;12.60;;;7.72;;
70205;SDS011;57593;55.896;37.396;2022-07-25T03:12:37;8.25;;;7.38;;
70205;SDS011;57593;55.896;37.396;2022-07-25T03:15:04;10.20;;;7.10;;
70205;SDS011;57593;55.896;37.396;2022-07-25T03:17:30;8.38;;;7.07;;
70205;SDS011;57593;55.896;37.396;2022-07-25T03:19:57;10.65;;;8.00;;
70205;SDS011;57593;55.896;37.396;2022-07-25T03:22:23;10.25;;;7.85;;
70205;SDS011;57593;55.896;37.396;2022-07-25T03:24:49;10.75;;;8.18;;
70205;SDS011;57593;55.896;37.396;2022-07-25T03:27:15;8.93;;;7.60;;
70205;SDS011;57593;55.896;37.396;2022-07-25T03:29:41;10.95;;;7.97;;
70205;SDS011;57593;55.896;37.396;2022-07-25T03:32:08;10.45;;;8.30;;
70205;SDS011;57593;55.896;37.396;2022-07-25T03:34:34;11.55;;;7.72;;
70205;SDS011;57593;55.896;37.396;2022-07-25T03:37:00;9.75;;;7.75;;
70205;SDS011;57593;55.896;37.396;2022-07-25T03:39:27;10.07;;;7.47;;
70205;SDS011;57593;55.896;37.396;2022-07-25T03:41:53;13.68;;;7.63;;
70205;SDS011;57593;55.896;37.396;2022-07-25T03:44:19;8.82;;;7.70;;
70205;SDS011;57593;55.896;37.396;2022-07-25T03:46:46;11.10;;;7.90;;
70205;SDS011;57593;55.896;37.396;2022-07-25T03:49:12;13.32;;;8.02;;
70205;SDS011;57593;55.896;37.396;2022-07-25T03:51:38;14.48;;;8.80;;
70205;SDS011;57593;55.896;37.396;2022-07-25T03:54:03;9.77;;;8.07;;
70205;SDS011;57593;55.896;37.396;2022-07-25T03:56:37;14.27;;;8.48;;
70205;SDS011;57593;55.896;37.396;2022-07-25T03:59:06;8.93;;;7.95;;
70205;SDS011;57593;55.896;37.396;2022-07-25T04:01:35;10.48;;;8.50;;
70205;SDS011;57593;55.896;37.396;2022-07-25T04:04:02;13.55;;;8.65;;
70205;SDS011;57593;55.896;37.396;2022-07-25T04:06:29;11.50;;;8.57;;
70205;SDS011;57593;55.896;37.396;2022-07-25T04:08:55;11.18;;;8.90;;
70205;SDS011;57593;55.896;37.396;2022-07-25T04:11:21;19.80;;;8.73;;
70205;SDS011;57593;55.896;37.396;2022-07-25T04:13:47;12.48;;;9.40;;
70205;SDS011;57593;55.896;37.396;2022-07-25T04:16:13;11.85;;;9.48;;
70205;SDS011;57593;55.896;37.396;2022-07-25T04:18:40;10.65;;;8.70;;
70205;SDS011;57593;55.896;37.396;2022-07-25T04:21:06;10.63;;;9.07;;
70205;SDS011;57593;55.896;37.396;2022-07-25T04:23:32;14.13;;;8.75;;
70205;SDS011;57593;55.896;37.396;2022-07-25T04:25:58;12.48;;;9.48;;
70205;SDS011;57593;55.896;37.396;2022-07-25T04:28:24;10.20;;;9.00;;
70205;SDS011;57593;55.896;37.396;2022-07-25T04:30:50;12.70;;;9.25;;
70205;SDS011;57593;55.896;37.396;2022-07-25T04:33:16;10.35;;;8.13;;
70205;SDS011;57593;55.896;37.396;2022-07-25T04:35:42;12.63;;;9.18;;
70205;SDS011;57593;55.896;37.396;2022-07-25T04:38:08;10.82;;;8.13;;
70205;SDS011;57593;55.896;37.396;2022-07-25T04:40:34;13.45;;;8.55;;
70205;SDS011;57593;55.896;37.396;2022-07-25T04:43:00;10.40;;;8.23;;
70205;SDS011;57593;55.896;37.396;2022-07-25T04:45:25;11.07;;;9.20;;
70205;SDS011;57593;55.896;37.396;2022-07-25T04:47:51;12.07;;;8.98;;
70205;SDS011;57593;55.896;37.396;2022-07-25T04:50:17;12.82;;;8.68;;
70205;SDS011;57593;55.896;37.396;2022-07-25T04:52:43;10.57;;;8.98;;
70205;SDS011;57593;55.896;37.396;2022-07-25T04:55:09;9.98;;;7.95;;
70205;SDS011;57593;55.896;37.396;2022-07-25T04:57:36;11.48;;;8.45;;
70205;SDS011;57593;55.896;37.396;2022-07-25T05:00:03;9.85;;;8.07;;
70205;SDS011;57593;55.896;37.396;2022-07-25T05:02:30;10.55;;;8.30;;
70205;SDS011;57593;55.896;37.396;2022-07-25T05:04:56;12.63;;;8.75;;
70205;SDS011;57593;55.896;37.396;2022-07-25T05:07:22;13.60;;;8.90;;
70205;SDS011;57593;55.896;37.396;2022-07-25T05:09:48;10.73;;;8.82;;
70205;SDS011;57593;55.896;37.396;2022-07-25T05:12:13;12.48;;;8.50;;
70205;SDS011;57593;55.896;37.396;2022-07-25T05:14:39;10.60;;;8.38;;
70205;SDS011;57593;55.896;37.396;2022-07-25T05:17:05;10.07;;;7.78;;
70205;SDS011;57593;55.896;37.396;2022-07-25T05:19:31;10.98;;;8.60;;
70205;SDS011;57593;55.896;37.396;2022-07-25T05:21:56;9.25;;;7.85;;
70205;SDS011;57593;55.896;37.396;2022-07-25T05:24:22;9.85;;;8.80;;
70205;SDS011;57593;55.896;37.396;2022-07-25T05:26:48;9.90;;;8.85;;
70205;SDS011;57593;55.896;37.396;2022-07-25T05:29:14;8.43;;;7.63;;
70205;SDS011;57593;55.896;37.396;2022-07-25T05:31:40;11.05;;;8.55;;
70205;SDS011;57593;55.896;37.396;2022-07-25T05:34:06;7.93;;;7.07;;
70205;SDS011;57593;55.896;37.396;2022-07-25T05:36:33;8.90;;;8.00;;
70205;SDS011;57593;55.896;37.396;2022-07-25T05:38:59;9.20;;;8.05;;
70205;SDS011;57593;55.896;37.396;2022-07-25T05:41:25;13.80;;;8.00;;
70205;SDS011;57593;55.896;37.396;2022-07-25T05:43:51;9.13;;;8.23;;
70205;SDS011;57593;55.896;37.396;2022-07-25T05:46:17;10.90;;;8.43;;
70205;SDS011;57593;55.896;37.396;2022-07-25T05:48:43;10.30;;;8.07;;
70205;SDS011;57593;55.896;37.396;2022-07-25T05:51:09;10.50;;;7.60;;
70205;SDS011;57593;55.896;37.396;2022-07-25T05:53:35;8.70;;;7.85;;
70205;SDS011;57593;55.896;37.396;2022-07-25T05:56:01;9.63;;;7.78;;
70205;SDS011;57593;55.896;37.396;2022-07-25T05:58:27;9.32;;;7.88;;
70205;SDS011;57593;55.896;37.396;2022-07-25T06:00:53;9.65;;;8.02;;
70205;SDS011;57593;55.896;37.396;2022-07-25T06:03:19;16.13;;;8.57;;
70205;SDS011;57593;55.896;37.396;2022-07-25T06:05:45;9.65;;;8.60;;
70205;SDS011;57593;55.896;37.396;2022-07-25T06:08:12;10.20;;;8.20;;
70205;SDS011;57593;55.896;37.396;2022-07-25T06:10:39;10.27;;;7.95;;
70205;SDS011;57593;55.896;37.396;2022-07-25T06:13:05;9.07;;;7.60;;
70205;SDS011;57593;55.896;37.396;2022-07-25T06:15:31;9.45;;;7.55;;
70205;SDS011;57593;55.896;37.396;2022-07-25T06:17:56;9.10;;;7.90;;
70205;SDS011;57593;55.896;37.396;2022-07-25T06:20:22;8.90;;;7.03;;
70205;SDS011;57593;55.896;37.396;2022-07-25T06:22:48;10.50;;;7.78;;
70205;SDS011;57593;55.896;37.396;2022-07-25T06:25:14;9.40;;;7.78;;
70205;SDS011;57593;55.896;37.396;2022-07-25T06:27:40;8.75;;;7.85;;
70205;SDS011;57593;55.896;37.396;2022-07-25T06:30:06;8.85;;;7.35;;
70205;SDS011;57593;55.896;37.396;2022-07-25T06:32:33;9.27;;;7.35;;
70205;SDS011;57593;55.896;37.396;2022-07-25T06:34:59;9.75;;;8.10;;
70205;SDS011;57593;55.896;37.396;2022-07-25T06:37:25;10.90;;;7.30;;
70205;SDS011;57593;55.896;37.396;2022-07-25T06:39:51;10.25;;;6.97;;
70205;SDS011;57593;55.896;37.396;2022-07-25T06:42:17;8.18;;;7.35;;
70205;SDS011;57593;55.896;37.396;2022-07-25T06:44:43;7.63;;;6.93;;
70205;SDS011;57593;55.896;37.396;2022-07-25T06:47:09;8.23;;;6.95;;
70205;SDS011;57593;55.896;37.396;2022-07-25T06:49:37;9.63;;;7.13;;
70205;SDS011;57593;55.896;37.396;2022-07-25T06:52:04;8.45;;;7.65;;
70205;SDS011;57593;55.896;37.396;2022-07-25T06:54:30;9.93;;;7.53;;
70205;SDS011;57593;55.896;37.396;2022-07-25T06:56:56;9.50;;;8.05;;
70205;SDS011;57593;55.896;37.396;2022-07-25T06:59:22;9.20;;;7.47;;
70205;SDS011;57593;55.896;37.396;2022-07-25T07:01:48;7.55;;;6.50;;
70205;SDS011;57593;55.896;37.396;2022-07-25T07:04:14;9.00;;;6.93;;
70205;SDS011;57593;55.896;37.396;2022-07-25T07:06:40;11.00;;;7.55;;
70205;SDS011;57593;55.896;37.396;2022-07-25T07:09:06;8.90;;;7.50;;
70205;SDS011;57593;55.896;37.396;2022-07-25T07:11:32;9.93;;;7.15;;
70205;SDS011;57593;55.896;37.396;2022-07-25T07:13:59;9.98;;;7.82;;
70205;SDS011;57593;55.896;37.396;2022-07-25T07:16:27;8.57;;;7.45;;
70205;SDS011;57593;55.896;37.396;2022-07-25T07:18:56;8.75;;;7.88;;
70205;SDS011;57593;55.896;37.396;2022-07-25T07:21:22;8.93;;;7.20;;
70205;SDS011;57593;55.896;37.396;2022-07-25T07:23:48;11.63;;;7.47;;
70205;SDS011;57593;55.896;37.396;2022-07-25T07:26:15;11.55;;;8.43;;
70205;SDS011;57593;55.896;37.396;2022-07-25T07:28:41;11.18;;;7.50;;
70205;SDS011;57593;55.896;37.396;2022-07-25T07:31:06;9.50;;;7.75;;
70205;SDS011;57593;55.896;37.396;2022-07-25T07:33:32;10.20;;;7.72;;
70205;SDS011;57593;55.896;37.396;2022-07-25T07:35:58;9.07;;;7.53;;
70205;SDS011;57593;55.896;37.396;2022-07-25T07:38:25;11.95;;;7.80;;
70205;SDS011;57593;55.896;37.396;2022-07-25T07:40:51;11.25;;;7.68;;
70205;SDS011;57593;55.896;37.396;2022-07-25T07:43:18;12.23;;;7.70;;
70205;SDS011;57593;55.896;37.396;2022-07-25T07:45:44;8.32;;;6.75;;
70205;SDS011;57593;55.896;37.396;2022-07-25T07:48:10;9.52;;;6.60;;
70205;SDS011;57593;55.896;37.396;2022-07-25T07:50:36;6.97;;;6.15;;
70205;SDS011;57593;55.896;37.396;2022-07-25T07:53:02;9.00;;;6.97;;
70205;SDS011;57593;55.896;37.396;2022-07-25T07:55:28;9.35;;;7.63;;
70205;SDS011;57593;55.896;37.396;2022-07-25T07:58:10;8.40;;;6.90;;
70205;SDS011;57593;55.896;37.396;2022-07-25T08:00:37;8.80;;;7.38;;
70205;SDS011;57593;55.896;37.396;2022-07-25T08:03:06;9.93;;;7.88;;
70205;SDS011;57593;55.896;37.396;2022-07-25T08:05:37;7.68;;;6.28;;
70205;SDS011;57593;55.896;37.396;2022-07-25T08:08:04;7.60;;;6.90;;
70205;SDS011;57593;55.896;37.396;2022-07-25T08:10:32;7.45;;;6.63;;
70205;SDS011;57593;55.896;37.396;2022-07-25T08:13:01;8.77;;;7.15;;
70205;SDS011;57593;55.896;37.396;2022-07-25T08:15:36;8.35;;;6.38;;
70205;SDS011;57593;55.896;37.396;2022-07-25T08:18:01;6.80;;;6.18;;
70205;SDS011;57593;55.896;37.396;2022-07-25T08:20:29;8.48;;;6.75;;
70205;SDS011;57593;55.896;37.396;2022-07-25T08:22:55;8.23;;;6.78;;
70205;SDS011;57593;55.896;37.396;2022-07-25T08:25:21;7.15;;;5.53;;
70205;SDS011;57593;55.896;37.396;2022-07-25T08:27:47;5.85;;;5.00;;
70205;SDS011;57593;55.896;37.396;2022-07-25T08:30:14;6.82;;;5.70;;
70205;SDS011;57593;55.896;37.396;2022-07-25T08:35:19;4.78;;;3.30;;
70205;SDS011;57593;55.896;37.396;2022-07-25T08:37:46;5.70;;;4.60;;
70205;SDS011;57593;55.896;37.396;2022-07-25T08:40:13;5.68;;;4.50;;
70205;SDS011;57593;55.896;37.396;2022-07-25T08:42:40;6.22;;;5.55;;
70205;SDS011;57593;55.896;37.396;2022-07-25T08:45:07;7.25;;;5.90;;
70205;SDS011;57593;55.896;37.396;2022-07-25T08:47:34;11.20;;;6.93;;
70205;SDS011;57593;55.896;37.396;2022-07-25T08:50:04;8.57;;;6.70;;
70205;SDS011;57593;55.896;37.396;2022-07-25T08:52:33;8.80;;;7.67;;
70205;SDS011;57593;55.896;37.396;2022-07-25T08:55:05;11.95;;;7.75;;
70205;SDS011;57593;55.896;37.396;2022-07-25T08:57:33;8.25;;;7.45;;
70205;SDS011;57593;55.896;37.396;2022-07-25T09:00:01;10.85;;;7.30;;
70205;SDS011;57593;55.896;37.396;2022-07-25T09:02:29;9.80;;;7.45;;
70205;SDS011;57593;55.896;37.396;2022-07-25T09:04:56;10.88;;;7.80;;
70205;SDS011;57593;55.896;37.396;2022-07-25T09:07:29;8.43;;;7.10;;
70205;SDS011;57593;55.896;37.396;2022-07-25T09:10:16;8.10;;;7.30;;
70205;SDS011;57593;55.896;37.396;2022-07-25T09:12:48;8.23;;;6.97;;
70205;SDS011;57593;55.896;37.396;2022-07-25T09:15:26;7.72;;;6.93;;
70205;SDS011;57593;55.896;37.396;2022-07-25T09:17:55;8.07;;;6.85;;
70205;SDS011;57593;55.896;37.396;2022-07-25T09:20:22;9.00;;;7.00;;
70205;SDS011;57593;55.896;37.396;2022-07-25T09:22:49;8.27;;;6.57;;
70205;SDS011;57593;55.896;37.396;2022-07-25T09:25:19;7.93;;;6.93;;
70205;SDS011;57593;55.896;37.396;2022-07-25T09:27:46;7.82;;;7.03;;
70205;SDS011;57593;55.896;37.396;2022-07-25T09:30:13;8.98;;;7.10;;
70205;SDS011;57593;55.896;37.396;2022-07-25T09:32:40;8.77;;;6.57;;
70205;SDS011;57593;55.896;37.396;2022-07-25T09:35:06;9.02;;;6.70;;
70205;SDS011;57593;55.896;37.396;2022-07-25T09:37:32;6.53;;;5.47;;
70205;SDS011;57593;55.896;37.396;2022-07-25T09:39:58;7.18;;;5.47;;
70205;SDS011;57593;55.896;37.396;2022-07-25T09:42:28;5.10;;;4.50;;
70205;SDS011;57593;55.896;37.396;2022-07-25T09:45:08;6.45;;;4.53;;
70205;SDS011;57593;55.896;37.396;2022-07-25T09:50:27;4.95;;;4.45;;
70205;SDS011;57593;55.896;37.396;2022-07-25T09:52:54;5.30;;;4.75;;
70205;SDS011;57593;55.896;37.396;2022-07-25T09:55:22;6.35;;;5.00;;
70205;SDS011;57593;55.896;37.396;2022-07-25T09:57:48;7.30;;;5.25;;
70205;SDS011;57593;55.896;37.396;2022-07-25T10:00:26;12.18;;;5.53;;
70205;SDS011;57593;55.896;37.396;2022-07-25T10:07:48;6.20;;;5.15;;
70205;SDS011;57593;55.896;37.396;2022-07-25T10:10:21;6.30;;;5.70;;
70205;SDS011;57593;55.896;37.396;2022-07-25T10:15:38;6.88;;;5.60;;
70205;SDS011;57593;55.896;37.396;2022-07-25T10:18:05;8.63;;;5.50;;
70205;SDS011;57593;55.896;37.396;2022-07-25T10:20:33;6.43;;;5.82;;
70205;SDS011;57593;55.896;37.396;2022-07-25T10:22:59;6.70;;;5.55;;
70205;SDS011;57593;55.896;37.396;2022-07-25T10:25:25;5.88;;;5.18;;
70205;SDS011;57593;55.896;37.396;2022-07-25T10:27:57;7.10;;;5.50;;
70205;SDS011;57593;55.896;37.396;2022-07-25T10:30:27;7.78;;;5.90;;
70205;SDS011;57593;55.896;37.396;2022-07-25T10:33:02;6.72;;;5.60;;
70205;SDS011;57593;55.896;37.396;2022-07-25T10:35:42;6.93;;;5.97;;
70205;SDS011;57593;55.896;37.396;2022-07-25T10:38:08;6.30;;;5.70;;
70205;SDS011;57593;55.896;37.396;2022-07-25T10:40:38;6.30;;;5.80;;
70205;SDS011;57593;55.896;37.396;2022-07-25T10:43:10;7.85;;;5.53;;
70205;SDS011;57593;55.896;37.396;2022-07-25T10:45:39;8.35;;;5.70;;
70205;SDS011;57593;55.896;37.396;2022-07-25T10:48:19;6.53;;;5.53;;
70205;SDS011;57593;55.896;37.396;2022-07-25T10:53:27;7.00;;;5.28;;
70205;SDS011;57593;55.896;37.396;2022-07-25T10:56:03;5.57;;;5.03;;
70205;SDS011;57593;55.896;37.396;2022-07-25T11:01:07;5.57;;;5.07;;
70205;SDS011;57593;55.896;37.396;2022-07-25T11:03:33;5.45;;;4.90;;
70205;SDS011;57593;55.896;37.396;2022-07-25T11:05:59;6.85;;;5.40;;
70205;SDS011;57593;55.896;37.396;2022-07-25T11:08:34;7.28;;;5.55;;
70205;SDS011;57593;55.896;37.396;2022-07-25T11:11:00;5.57;;;5.07;;
70205;SDS011;57593;55.896;37.396;2022-07-25T11:13:26;6.03;;;5.43;;
70205;SDS011;57593;55.896;37.396;2022-07-25T11:15:56;7.80;;;5.22;;
70205;SDS011;57593;55.896;37.396;2022-07-25T11:18:36;5.38;;;4.85;;
70205;SDS011;57593;55.896;37.396;2022-07-25T11:21:04;6.10;;;5.47;;
70205;SDS011;57593;55.896;37.396;2022-07-25T11:23:32;6.82;;;6.13;;
70205;SDS011;57593;55.896;37.396;2022-07-25T11:26:08;7.00;;;5.72;;
70205;SDS011;57593;55.896;37.396;2022-07-25T11:28:36;7.40;;;5.60;;
70205;SDS011;57593;55.896;37.396;2022-07-25T11:31:03;7.22;;;5.80;;
70205;SDS011;57593;55.896;37.396;2022-07-25T11:33:29;6.53;;;5.53;;
70205;SDS011;57593;55.896;37.396;2022-07-25T11:35:55;5.30;;;4.80;;
70205;SDS011;57593;55.896;37.396;2022-07-25T11:38:24;5.40;;;4.85;;
70205;SDS011;57593;55.896;37.396;2022-07-25T11:40:50;6.80;;;4.70;;
70205;SDS011;57593;55.896;37.396;2022-07-25T11:43:19;7.88;;;4.90;;
70205;SDS011;57593;55.896;37.396;2022-07-25T11:45:56;5.80;;;5.28;;
70205;SDS011;57593;55.896;37.396;2022-07-25T11:48:29;7.40;;;4.90;;
70205;SDS011;57593;55.896;37.396;2022-07-25T11:51:08;5.75;;;5.18;;
70205;SDS011;57593;55.896;37.396;2022-07-25T11:53:46;5.95;;;5.20;;
70205;SDS011;57593;55.896;37.396;2022-07-25T11:56:18;5.72;;;4.72;;
70205;SDS011;57593;55.896;37.396;2022-07-25T11:58:56;6.30;;;5.55;;
70205;SDS011;57593;55.896;37.396;2022-07-25T12:01:23;5.13;;;4.63;;
70205;SDS011;57593;55.896;37.396;2022-07-25T12:03:49;6.35;;;5.20;;
70205;SDS011;57593;55.896;37.396;2022-07-25T12:06:15;6.75;;;5.05;;
70205;SDS011;57593;55.896;37.396;2022-07-25T12:08:41;6.03;;;5.07;;
70205;SDS011;57593;55.896;37.396;2022-07-25T12:11:20;7.65;;;5.05;;
70205;SDS011;57593;55.896;37.396;2022-07-25T12:13:47;5.40;;;4.88;;
70205;SDS011;57593;55.896;37.396;2022-07-25T12:16:13;6.80;;;5.47;;
70205;SDS011;57593;55.896;37.396;2022-07-25T12:18:40;5.97;;;5.00;;
70205;SDS011;57593;55.896;37.396;2022-07-25T12:21:06;6.35;;;5.07;;
70205;SDS011;57593;55.896;37.396;2022-07-25T12:23:33;7.13;;;4.35;;
70205;SDS011;57593;55.896;37.396;2022-07-25T12:25:58;7.32;;;5.38;;
70205;SDS011;57593;55.896;37.396;2022-07-25T12:28:24;4.57;;;4.13;;
70205;SDS011;57593;55.896;37.396;2022-07-25T12:30:52;5.10;;;4.43;;
70205;SDS011;57593;55.896;37.396;2022-07-25T12:33:18;4.90;;;4.50;;
70205;SDS011;57593;55.896;37.396;2022-07-25T12:35:44;4.63;;;4.22;;
70205;SDS011;57593;55.896;37.396;2022-07-25T12:38:09;5.43;;;4.97;;
70205;SDS011;57593;55.896;37.396;2022-07-25T12:40:36;5.32;;;4.80;;
70205;SDS011;57593;55.896;37.396;2022-07-25T12:43:02;6.55;;;4.72;;
70205;SDS011;57593;55.896;37.396;2022-07-25T12:45:29;6.53;;;4.35;;
70205;SDS011;57593;55.896;37.396;2022-07-25T12:47:54;5.00;;;4.50;;
70205;SDS011;57593;55.896;37.396;2022-07-25T12:50:20;9.63;;;4.38;;
70205;SDS011;57593;55.896;37.396;2022-07-25T12:52:46;4.78;;;4.35;;
70205;SDS011;57593;55.896;37.396;2022-07-25T12:55:13;5.35;;;4.70;;
70205;SDS011;57593;55.896;37.396;2022-07-25T12:57:42;4.93;;;4.47;;
70205;SDS011;57593;55.896;37.396;2022-07-25T13:00:10;4.88;;;4.30;;
70205;SDS011;57593;55.896;37.396;2022-07-25T13:02:38;7.80;;;3.75;;
70205;SDS011;57593;55.896;37.396;2022-07-25T13:05:03;7.85;;;4.45;;
70205;SDS011;57593;55.896;37.396;2022-07-25T13:07:30;4.50;;;4.10;;
70205;SDS011;57593;55.896;37.396;2022-07-25T13:09:57;5.15;;;4.65;;
70205;SDS011;57593;55.896;37.396;2022-07-25T13:12:23;8.98;;;4.45;;
70205;SDS011;57593;55.896;37.396;2022-07-25T13:14:49;6.03;;;4.70;;
70205;SDS011;57593;55.896;37.396;2022-07-25T13:17:15;6.13;;;4.90;;
70205;SDS011;57593;55.896;37.396;2022-07-25T13:19:41;7.25;;;5.68;;
70205;SDS011;57593;55.896;37.396;2022-07-25T13:22:07;5.55;;;5.05;;
70205;SDS011;57593;55.896;37.396;2022-07-25T13:24:33;5.97;;;5.00;;
70205;SDS011;57593;55.896;37.396;2022-07-25T13:27:03;5.38;;;4.88;;
70205;SDS011;57593;55.896;37.396;2022-07-25T13:29:29;7.90;;;7.20;;
70205;SDS011;57593;55.896;37.396;2022-07-25T13:31:55;4.80;;;4.40;;
70205;SDS011;57593;55.896;37.396;2022-07-25T13:34:21;5.05;;;4.15;;
70205;SDS011;57593;55.896;37.396;2022-07-25T13:36:46;4.60;;;4.18;;
70205;SDS011;57593;55.896;37.396;2022-07-25T13:39:12;5.10;;;4.60;;
70205;SDS011;57593;55.896;37.396;2022-07-25T13:41:38;5.35;;;4.00;;
70205;SDS011;57593;55.896;37.396;2022-07-25T13:44:04;5.60;;;4.72;;
70205;SDS011;57593;55.896;37.396;2022-07-25T13:46:30;4.22;;;3.83;;
70205;SDS011;57593;55.896;37.396;2022-07-25T13:48:59;4.78;;;4.40;;
70205;SDS011;57593;55.896;37.396;2022-07-25T13:51:25;6.38;;;4.50;;
70205;SDS011;57593;55.896;37.396;2022-07-25T13:53:51;4.68;;;3.80;;
70205;SDS011;57593;55.896;37.396;2022-07-25T13:56:16;4.50;;;4.15;;
70205;SDS011;57593;55.896;37.396;2022-07-25T13:58:42;4.18;;;3.58;;
70205;SDS011;57593;55.896;37.396;2022-07-25T14:01:08;4.53;;;4.20;;
70205;SDS011;57593;55.896;37.396;2022-07-25T14:03:35;4.05;;;3.65;;
70205;SDS011;57593;55.896;37.396;2022-07-25T14:06:05;4.35;;;4.05;;
70205;SDS011;57593;55.896;37.396;2022-07-25T14:08:34;4.50;;;4.20;;
70205;SDS011;57593;55.896;37.396;2022-07-25T14:11:00;4.82;;;4.43;;
70205;SDS011;57593;55.896;37.396;2022-07-25T14:13:25;5.82;;;4.30;;
70205;SDS011;57593;55.896;37.396;2022-07-25T14:15:51;5.32;;;3.45;;
70205;SDS011;57593;55.896;37.396;2022-07-25T14:18:17;4.30;;;3.83;;
70205;SDS011;57593;55.896;37.396;2022-07-25T14:20:43;5.63;;;4.28;;
70205;SDS011;57593;55.896;37.396;2022-07-25T14:23:08;4.00;;;3.75;;
70205;SDS011;57593;55.896;37.396;2022-07-25T14:25:34;7.63;;;7.03;;
70205;SDS011;57593;55.896;37.396;2022-07-25T14:28:00;6.15;;;5.63;;
70205;SDS011;57593;55.896;37.396;2022-07-25T14:30:26;6.90;;;4.22;;
70205;SDS011;57593;55.896;37.396;2022-07-25T14:32:52;8.48;;;6.00;;
70205;SDS011;57593;55.896;37.396;2022-07-25T14:35:18;6.30;;;5.90;;
70205;SDS011;57593;55.896;37.396;2022-07-25T14:37:45;4.03;;;3.72;;
70205;SDS011;57593;55.896;37.396;2022-07-25T14:40:11;4.15;;;3.08;;
70205;SDS011;57593;55.896;37.396;2022-07-25T14:42:39;4.53;;;4.00;;
70205;SDS011;57593;55.896;37.396;2022-07-25T14:45:06;4.45;;;4.05;;
70205;SDS011;57593;55.896;37.396;2022-07-25T14:47:33;3.97;;;3.67;;